Flight Track Log - Related Links

Times and Time Zones

All times are in EDT time to prevent confusion due to time zone crossing. See the SIA22 flight status page for this flight to view local times or setup timezone preferences in your user account.


Time Position Orientation Groundspeed Altitude Reporting Facility
EDT Latitude Longitude Course Direction KTS MPH feet Rate Location/Type
Mon 04:47:00 PM 45.5387 -77.2678 178° South  Level FlightAware Approximate
Mon 04:48:00 PM 45.4040 -77.2624 178° South  Level FlightAware Approximate
Mon 04:48:34 PM 43.9000 -77.1500 252° West 490 564 36,600  Level Toronto Center
Mon 04:49:00 PM 45.2693 -77.2574 178° South  Level FlightAware Approximate
Mon 04:49:34 PM 43.8167 -77.0167 131° Southeast 480 552 35,600  Level Toronto Center
Mon 04:50:00 PM 45.1347 -77.2524 178° South  Level FlightAware Approximate
Mon 04:50:34 PM 43.7167 -76.8833 136° Southeast 490 564 34,600  Level Toronto Center
Mon 04:51:00 PM 45.0000 -77.2474 178° South  Level FlightAware Approximate
Mon 04:51:49 PM 43.5983 -76.7669 145° Southeast 486 559 33,400  Level Boston Center
Mon 04:52:00 PM 44.8653 -77.2424 179° South  Level FlightAware Approximate
Mon 04:52:49 PM 43.5117 -76.6833 145° Southeast 491 565 32,600  Level Boston Center
Mon 04:53:00 PM 44.7307 -77.2375 179° South  Level FlightAware Approximate
Mon 04:53:49 PM 43.3931 -76.5636 144° Southeast 485 558 31,600  Level Boston Center
Mon 04:54:00 PM 44.6104 -77.2610 252° West  Level FlightAware Approximate
Mon 04:54:49 PM 43.2842 -76.4594 145° Southeast 480 552 30,600  Level Boston Center
Mon 04:55:34 PM 43.1833 -76.3333 138° Southeast 480 552 29,800 -1,000 Descending Toronto Center
Mon 04:55:49 PM 43.1753 -76.3553 243° Southwest 480 552 29,600 -1,120 Descending Boston Center
Mon 04:56:49 PM 43.0519 -76.2394 146° Southeast 480 552 28,400 -1,050 Descending Boston Center
Mon 04:57:49 PM 42.9469 -76.1392 145° Southeast 475 547 27,500 -1,150 Descending Boston Center
Mon 04:58:49 PM 42.8417 -76.0394 145° Southeast 475 547 26,100 -1,300 Descending Boston Center
Mon 04:59:49 PM 42.7383 -75.9431 146° Southeast 470 541 24,900 -1,000 Descending Boston Center
Mon 05:00:49 PM 42.6369 -75.8469 145° Southeast 457 526 24,100 -700 Descending Boston Center
Mon 05:01:49 PM 42.5375 -75.7542 145° Southeast 444 511 23,500 -650 Descending Boston Center
Mon 05:02:49 PM 42.4400 -75.6644 146° Southeast 439 505 22,800 -700 Descending Boston Center
Mon 05:03:49 PM 42.3425 -75.5722 145° Southeast 433 498 22,100 -800 Descending Boston Center
Mon 05:04:49 PM 42.2450 -75.4806 145° Southeast 433 498 21,200 -950 Descending Boston Center
Mon 05:05:49 PM 42.1492 -75.3944 146° Southeast 433 498 20,200 -900 Descending Boston Center
Mon 05:06:49 PM 42.0681 -75.3153 144° Southeast 426 490 19,400 -900 Descending Boston Center
Mon 05:07:49 PM 42.0128 -75.1842 120° Southeast 405 466 18,400 -700 Descending Boston Center
Mon 05:08:49 PM 41.9639 -75.0508 116° Southeast 369 425 18,000 -200 Descending Boston Center
Mon 05:09:49 PM 41.9206 -74.9400 118° Southeast 346 398 18,000 -300 Level Boston Center
Mon 05:10:49 PM 41.8811 -74.8325 116° Southeast 323 372 17,400 -750 Descending Boston Center
Mon 05:11:49 PM 41.8733 -74.7125 95° East 317 365 16,500 -700 Descending Boston Center
Mon 05:12:49 PM 41.8819 -74.5900 85° East 317 365 16,000 -450 Descending Boston Center
Mon 05:13:49 PM 41.8883 -74.4675 86° East 323 372 15,600 -650 Descending Boston Center
Mon 05:14:49 PM 41.8944 -74.3478 86° East 323 372 14,700 -900 Descending Boston Center
Mon 05:15:49 PM 41.9028 -74.2336 84° East 323 372 13,800 -900 Descending Boston Center

Login

Don't have an account? Register now (free) for customized features, flight alerts, and more!